Snel-info
Kleurcode:
Groen
Er mag gevlogen worden.
Laatste update: 21/02/2017
Kleurcode informatie

Grasmaaien:

Geen maaibeurten gepland.

Volgende vliegdagen:

(geen extra vliegdagen gevonden)
Alle extra vliegdagen

Weersituatie op PMF:

050_25_jaar_PMF__110_Hans.jpg

Huidige weersituatie

Huidig weerbeeld in Kleine Brogel, Belgium
Huidige wind in Kleine Brogel, Belgium

Dit is het bericht voor Kleine Brogel, Belgium en werd 38 minuten geleden gemaakt.
De wind waaide met een snelheid van 4.6 meter per seconde (16.7 km/h) uit het zuidwesten (220°).
De temperatuur was 7 °C. De atmosferische druk was 1016 hPa. De relative luchtvochtigheid was 70.4%. Het algemene zicht was meer dan 10 kilometer.

De onbewerkte METAR gegevens waarop dit bericht is gebaseerd zijn:
EBBL 251755Z AUTO 22009KT 9999 SCT200/// 07/02 Q1016 BLU


Opmerking:
De wind blijkt op PMF meestal iets krachtiger te waaien dan op Kleine Brogel. De windrichting klopt dan weer wel.




KMI

De weersvoorspellingen van het KMI vind je via deze link.


Buienradar

Op www.buienradar.nl kun je zelf zien waar het nu en de komende uren regent.